createdAt,value
2018-04-19T00:00:53.320Z,102169
2018-04-19T00:03:21.754Z,102171
2018-04-19T00:05:50.827Z,102166
2018-04-19T00:08:19.257Z,102166
2018-04-19T00:10:47.650Z,102164
2018-04-19T00:13:16.039Z,102166
2018-04-19T00:15:44.436Z,102165
2018-04-19T00:18:12.792Z,102165
2018-04-19T00:20:41.140Z,102168
2018-04-19T00:23:09.686Z,102166
2018-04-19T00:25:38.049Z,102168
2018-04-19T00:28:06.501Z,102164
2018-04-19T00:30:35.045Z,102161
2018-04-19T00:33:04.142Z,102160
2018-04-19T00:35:33.355Z,102160
2018-04-19T00:38:01.691Z,102159
2018-04-19T00:40:30.007Z,102157
2018-04-19T00:42:58.337Z,102122
2018-04-19T00:45:26.895Z,102151
2018-04-19T00:47:55.374Z,102152
2018-04-19T00:50:23.764Z,102154
2018-04-19T00:53:09.872Z,102150
2018-04-19T00:55:38.392Z,102154
2018-04-19T00:58:07.998Z,102152
2018-04-19T01:00:37.341Z,102148
2018-04-19T01:03:05.637Z,102142
2018-04-19T01:05:33.927Z,102142
2018-04-19T01:08:02.550Z,102141
2018-04-19T01:10:30.882Z,102142
2018-04-19T01:13:00.571Z,102140
2018-04-19T01:15:29.176Z,102138
2018-04-19T01:17:57.916Z,102133
2018-04-19T01:20:26.202Z,102134
2018-04-19T01:22:54.482Z,102126
2018-04-19T01:25:22.805Z,102126
2018-04-19T01:27:51.131Z,102129
2018-04-19T01:30:19.447Z,102129
2018-04-19T01:32:47.792Z,102126
2018-04-19T01:35:16.158Z,102128
2018-04-19T01:37:44.632Z,102125
2018-04-19T01:40:12.982Z,102124
2018-04-19T01:42:42.332Z,102124
2018-04-19T01:45:10.617Z,102124
2018-04-19T01:47:38.952Z,102129
2018-04-19T01:50:08.142Z,102125
2018-04-19T01:52:37.207Z,102120
2018-04-19T01:55:05.601Z,102122
2018-04-19T01:57:33.913Z,102122
2018-04-19T02:00:02.252Z,102121
2018-04-19T02:02:31.335Z,102121
2018-04-19T02:04:59.681Z,102128
2018-04-19T02:07:28.032Z,102123
2018-04-19T02:09:56.481Z,102120
2018-04-19T02:12:25.044Z,102119
2018-04-19T02:14:54.652Z,102117
2018-04-19T02:17:23.156Z,102117
2018-04-19T02:19:51.497Z,102111
2018-04-19T02:22:19.818Z,102109
2018-04-19T02:24:48.327Z,102106
2018-04-19T02:27:16.612Z,102108
2018-04-19T02:29:44.936Z,102102
2018-04-19T02:32:13.223Z,102105
2018-04-19T02:34:41.546Z,102097
2018-04-19T02:37:09.867Z,102096
2018-04-19T02:39:39.714Z,102086
2018-04-19T02:42:08.046Z,102087
2018-04-19T02:44:36.356Z,102088
2018-04-19T02:47:05.509Z,102083
2018-04-19T02:49:33.800Z,102080
2018-04-19T02:52:03.646Z,102079
2018-04-19T02:54:32.136Z,102080
2018-04-19T02:57:00.522Z,102070
2018-04-19T02:59:28.886Z,102075
2018-04-19T03:01:57.365Z,102078
2018-04-19T03:04:26.447Z,102074
2018-04-19T03:06:54.850Z,102075
2018-04-19T03:09:23.416Z,102072
2018-04-19T03:11:52.500Z,102070
2018-04-19T03:14:20.923Z,102063
2018-04-19T03:16:49.267Z,102061
2018-04-19T03:19:19.447Z,102059
2018-04-19T03:21:47.792Z,102057
2018-04-19T03:24:16.115Z,102059
2018-04-19T03:26:44.507Z,102055
2018-04-19T03:29:12.816Z,102050
2018-04-19T03:31:41.170Z,102047
2018-04-19T03:34:09.513Z,102051
2018-04-19T03:36:38.002Z,102045
2018-04-19T03:39:06.290Z,102043
2018-04-19T03:41:34.705Z,102042
2018-04-19T03:44:03.793Z,102043
2018-04-19T03:46:32.936Z,102043
2018-04-19T03:49:02.797Z,102039
2018-04-19T03:51:32.994Z,102036
2018-04-19T03:54:01.307Z,102036
2018-04-19T03:56:29.760Z,102037
2018-04-19T03:58:58.298Z,102035
2018-04-19T04:01:26.608Z,102034
2018-04-19T04:03:54.893Z,102033
2018-04-19T04:06:23.208Z,102039
2018-04-19T04:08:51.582Z,102041
2018-04-19T04:11:19.947Z,102038
2018-04-19T04:13:48.998Z,102032
2018-04-19T04:19:45.599Z,102036
2018-04-19T04:22:32.944Z,102030
2018-04-19T04:25:01.392Z,102031
2018-04-19T04:27:29.678Z,102036
2018-04-19T04:29:58.925Z,102033
2018-04-19T04:32:27.425Z,102041
2018-04-19T04:34:55.699Z,102035
2018-04-19T04:37:24.058Z,102032
2018-04-19T04:39:52.518Z,102036
2018-04-19T04:42:22.774Z,102035
2018-04-19T04:44:51.303Z,102036
2018-04-19T04:47:20.576Z,102037
2018-04-19T04:49:49.701Z,102037
2018-04-19T04:52:18.317Z,102035
2018-04-19T04:54:46.646Z,102033
2018-04-19T04:57:15.757Z,102032
2018-04-19T04:59:45.004Z,102038
2018-04-19T05:02:13.300Z,102040
2018-04-19T05:04:41.822Z,102042
2018-04-19T05:07:11.023Z,102044
2018-04-19T05:09:39.409Z,102045
2018-04-19T05:12:07.731Z,102047
2018-04-19T05:14:36.202Z,102051
2018-04-19T05:17:05.335Z,102051
2018-04-19T05:19:34.618Z,102052
2018-04-19T05:22:03.414Z,102042
2018-04-19T05:24:32.507Z,102048
2018-04-19T05:27:01.609Z,102051
2018-04-19T05:29:30.698Z,102050
2018-04-19T05:31:59.927Z,102057
2018-04-19T05:34:28.397Z,102054
2018-04-19T05:36:56.768Z,102050
2018-04-19T05:39:25.857Z,102053
2018-04-19T05:41:54.959Z,102057
2018-04-19T05:44:24.832Z,102057
2018-04-19T05:46:53.224Z,102058
2018-04-19T05:49:21.491Z,102058
2018-04-19T05:51:50.089Z,102054
2018-04-19T05:54:18.418Z,102054
2018-04-19T05:56:46.752Z,102062
2018-04-19T05:59:15.299Z,102058
2018-04-19T06:01:43.679Z,102059
2018-04-19T06:04:12.139Z,102059
2018-04-19T06:06:40.433Z,102066
2018-04-19T06:09:08.972Z,102066
2018-04-19T06:11:38.169Z,102065
2018-04-19T06:14:07.292Z,102069
2018-04-19T06:16:35.613Z,102056
2018-04-19T06:19:04.141Z,102058
2018-04-19T06:21:33.866Z,102061
2018-04-19T06:24:02.603Z,102059
2018-04-19T06:26:31.951Z,102060
2018-04-19T06:29:00.247Z,102060
2018-04-19T06:31:28.582Z,102057
2018-04-19T06:33:57.862Z,102055
2018-04-19T06:36:27.033Z,102053
2018-04-19T06:38:55.579Z,102053
2018-04-19T06:41:24.193Z,102053
2018-04-19T06:43:52.550Z,102057
2018-04-19T06:46:20.962Z,102054
2018-04-19T06:48:49.337Z,102057
2018-04-19T06:51:17.797Z,102060
2018-04-19T06:53:46.847Z,102060
2018-04-19T06:56:15.926Z,102058
2018-04-19T06:58:45.506Z,102057
2018-04-19T07:01:13.793Z,102059
2018-04-19T07:03:42.307Z,102058
2018-04-19T07:06:11.534Z,102060
2018-04-19T07:08:39.842Z,102059
2018-04-19T07:11:08.253Z,102058
2018-04-19T07:13:37.324Z,102055
2018-04-19T07:16:05.647Z,102050
2018-04-19T07:18:34.048Z,102049
2018-04-19T07:21:02.453Z,102047
2018-04-19T07:23:30.833Z,102045
2018-04-19T07:25:59.306Z,102045
2018-04-19T07:28:27.628Z,102044
2018-04-19T07:30:56.744Z,102044
2018-04-19T07:33:25.146Z,102045
2018-04-19T07:35:53.498Z,102040
2018-04-19T07:38:21.817Z,102040
2018-04-19T07:40:50.142Z,102037
2018-04-19T07:43:18.463Z,102033
2018-04-19T07:45:46.771Z,102037
2018-04-19T07:48:15.147Z,102035
2018-04-19T07:50:43.498Z,102030
2018-04-19T07:53:11.807Z,102030
2018-04-19T07:55:40.927Z,102028
2018-04-19T07:58:10.469Z,102030
2018-04-19T08:00:38.893Z,102026
2018-04-19T08:03:07.275Z,102023
2018-04-19T08:05:36.377Z,102023
2018-04-19T08:08:05.523Z,102028
2018-04-19T08:10:33.915Z,102020
2018-04-19T08:13:02.241Z,102025
2018-04-19T08:15:30.607Z,102022
2018-04-19T08:17:59.002Z,102018
2018-04-19T08:20:27.333Z,102018
2018-04-19T08:22:55.639Z,102016
2018-04-19T08:25:24.793Z,102014
2018-04-19T08:27:53.199Z,102016
2018-04-19T08:30:21.607Z,102009
2018-04-19T08:32:49.949Z,102005
2018-04-19T08:35:19.098Z,102009
2018-04-19T08:37:47.498Z,102004
2018-04-19T08:40:15.783Z,102006
2018-04-19T08:42:44.150Z,102007
2018-04-19T08:45:12.612Z,102003
2018-04-19T08:47:41.059Z,102006
2018-04-19T08:50:10.291Z,101998
2018-04-19T08:52:38.704Z,102001
2018-04-19T08:55:07.013Z,102001
2018-04-19T08:57:37.253Z,101997
2018-04-19T09:00:05.733Z,101991
2018-04-19T09:02:34.099Z,101990
2018-04-19T09:05:02.458Z,101994
2018-04-19T09:07:31.534Z,101987
2018-04-19T09:09:59.824Z,101984
2018-04-19T09:12:28.164Z,101983
2018-04-19T09:14:56.578Z,101985
2018-04-19T09:17:25.269Z,101983
2018-04-19T09:19:53.645Z,101978
2018-04-19T09:22:22.338Z,101986
2018-04-19T09:24:50.798Z,101984
2018-04-19T09:27:19.240Z,101984
2018-04-19T09:29:47.523Z,101979
2018-04-19T09:32:15.830Z,101975
2018-04-19T09:34:44.217Z,101981
2018-04-19T09:37:12.659Z,101975
2018-04-19T09:39:41.135Z,101972
2018-04-19T09:42:09.700Z,101975
2018-04-19T09:44:38.929Z,101967
2018-04-19T09:47:07.231Z,101973
2018-04-19T09:49:35.554Z,101967
2018-04-19T09:52:04.158Z,101959
2018-04-19T09:54:32.712Z,101960
2018-04-19T09:57:01.907Z,101959
2018-04-19T09:59:32.138Z,101950
2018-04-19T10:02:04.498Z,101945
2018-04-19T10:04:34.746Z,101940
2018-04-19T10:07:03.056Z,101939
2018-04-19T10:09:31.562Z,101936
2018-04-19T10:12:00.092Z,101938
2018-04-19T10:14:28.567Z,101937
2018-04-19T10:16:56.929Z,101931
2018-04-19T10:19:26.090Z,101928
2018-04-19T10:21:54.400Z,101927
2018-04-19T10:24:23.518Z,101924
2018-04-19T10:26:51.790Z,101921
2018-04-19T10:29:20.103Z,101923
2018-04-19T10:31:48.423Z,101918
2018-04-19T10:34:17.664Z,101915
2018-04-19T10:36:47.197Z,101917
2018-04-19T10:39:15.764Z,101910
2018-04-19T10:41:44.093Z,101906
2018-04-19T10:44:13.293Z,101898
2018-04-19T10:46:41.607Z,101896
2018-04-19T10:49:10.053Z,101895
2018-04-19T10:51:39.125Z,101891
2018-04-19T10:54:07.531Z,101888
2018-04-19T10:56:36.654Z,101890
2018-04-19T10:59:05.000Z,101879
2018-04-19T11:01:33.385Z,101882
2018-04-19T11:04:01.716Z,101880
2018-04-19T11:06:30.004Z,101883
2018-04-19T11:08:59.787Z,101882
2018-04-19T11:11:28.149Z,101883
2018-04-19T11:13:56.593Z,101879
2018-04-19T11:16:24.918Z,101874
2018-04-19T11:18:53.514Z,101872
2018-04-19T11:21:21.815Z,101868
2018-04-19T11:23:51.014Z,101862
2018-04-19T11:26:20.114Z,101861
2018-04-19T11:28:48.499Z,101865
2018-04-19T11:31:17.603Z,101862
2018-04-19T11:33:45.938Z,101865
2018-04-19T11:36:14.277Z,101862
2018-04-19T11:38:42.648Z,101858
2018-04-19T11:41:12.687Z,101851
2018-04-19T11:43:41.011Z,101849
2018-04-19T11:46:10.167Z,101848
2018-04-19T11:48:38.623Z,101847
2018-04-19T11:51:06.992Z,101845
2018-04-19T11:53:35.442Z,101844
2018-04-19T11:56:04.547Z,101844
2018-04-19T11:58:33.879Z,101843
2018-04-19T12:01:02.313Z,101831
2018-04-19T12:03:32.125Z,101830
2018-04-19T12:06:01.286Z,101829
2018-04-19T12:08:29.568Z,101825
2018-04-19T12:10:57.930Z,101822
2018-04-19T12:13:26.592Z,101815
2018-04-19T12:15:56.254Z,101816
2018-04-19T12:18:24.716Z,101823
2018-04-19T12:20:53.534Z,101817
2018-04-19T12:23:22.670Z,101821
2018-04-19T12:25:50.995Z,101816
2018-04-19T12:28:19.325Z,101817
2018-04-19T12:30:47.698Z,101814
2018-04-19T12:33:16.072Z,101814
2018-04-19T12:35:44.766Z,101804
2018-04-19T12:38:13.107Z,101815
2018-04-19T12:40:41.444Z,101811
2018-04-19T12:43:09.780Z,101807
2018-04-19T12:45:38.911Z,101805
2018-04-19T12:48:07.207Z,101794
2018-04-19T12:50:35.555Z,101791
2018-04-19T12:53:04.045Z,101792
2018-04-19T12:55:32.419Z,101798
2018-04-19T12:58:01.799Z,101787
2018-04-19T13:00:31.046Z,101789
2018-04-19T13:02:59.447Z,101785
2018-04-19T13:05:27.821Z,101782
2018-04-19T13:07:56.224Z,101777
2018-04-19T13:10:25.415Z,101784
2018-04-19T13:12:53.867Z,101776
2018-04-19T13:15:22.589Z,101777
2018-04-19T13:17:51.684Z,101774
2018-04-19T13:20:21.878Z,101767
2018-04-19T13:22:50.245Z,101768
2018-04-19T13:25:18.571Z,101766
2018-04-19T13:27:47.850Z,101763
2018-04-19T13:30:16.249Z,101750
2018-04-19T13:32:44.770Z,101744
2018-04-19T13:35:13.375Z,101746
2018-04-19T13:37:41.789Z,101746
2018-04-19T13:40:11.123Z,101746
2018-04-19T13:42:39.492Z,101740
2018-04-19T13:45:07.931Z,101734
2018-04-19T13:47:36.574Z,101730
2018-04-19T13:50:04.922Z,101739
2018-04-19T13:52:35.240Z,101731
2018-04-19T13:55:04.656Z,101728
2018-04-19T13:57:33.077Z,101731
2018-04-19T14:00:01.603Z,101729
2018-04-19T14:02:30.844Z,101726
2018-04-19T14:04:59.473Z,101721
2018-04-19T14:07:27.798Z,101718
2018-04-19T14:09:56.246Z,101711
2018-04-19T14:12:25.460Z,101712
2018-04-19T14:14:53.990Z,101710
2018-04-19T14:17:22.410Z,101709
2018-04-19T14:19:50.890Z,101706
2018-04-19T14:22:19.345Z,101703
2018-04-19T14:24:47.754Z,101697
2018-04-19T14:27:16.262Z,101692
2018-04-19T14:29:44.840Z,101692
2018-04-19T14:32:14.028Z,101700
2018-04-19T14:34:42.423Z,101695
2018-04-19T14:37:10.901Z,101694
2018-04-19T14:39:39.307Z,101693
2018-04-19T14:42:07.863Z,101684
2018-04-19T14:44:36.191Z,101679
2018-04-19T14:47:04.765Z,101680
2018-04-19T14:49:33.075Z,101680
2018-04-19T14:52:01.632Z,101676
2018-04-19T14:54:30.040Z,101674
2018-04-19T14:56:58.364Z,101674
2018-04-19T14:59:26.736Z,101673
2018-04-19T15:01:55.076Z,101670
2018-04-19T15:04:23.736Z,101667
2018-04-19T15:06:52.999Z,101668
2018-04-19T15:09:21.391Z,101663
2018-04-19T15:11:50.634Z,101664
2018-04-19T15:14:19.003Z,101663
2018-04-19T15:16:48.284Z,101658
2018-04-19T15:19:16.697Z,101660
2018-04-19T15:21:45.035Z,101665
2018-04-19T15:24:13.457Z,101658
2018-04-19T15:26:42.048Z,101657
2018-04-19T15:29:10.345Z,101655
2018-04-19T15:31:38.744Z,101658
2018-04-19T15:34:07.177Z,101657
2018-04-19T15:36:35.483Z,101650
2018-04-19T15:39:04.167Z,101648
2018-04-19T15:41:32.518Z,101644
2018-04-19T15:44:00.881Z,101651
2018-04-19T15:46:29.372Z,101647
2018-04-19T15:48:57.813Z,101650
2018-04-19T15:51:26.343Z,101645
2018-04-19T15:53:54.934Z,101647
2018-04-19T15:56:23.344Z,101643
2018-04-19T15:58:51.804Z,101645
2018-04-19T16:01:20.266Z,101645
2018-04-19T16:03:48.632Z,101645
2018-04-19T16:06:17.011Z,101644
2018-04-19T16:08:45.355Z,101641
2018-04-19T16:11:14.508Z,101645
2018-04-19T16:13:42.947Z,101644
2018-04-19T16:16:11.590Z,101644
2018-04-19T16:18:40.973Z,101638
2018-04-19T16:21:09.372Z,101632
2018-04-19T16:23:37.759Z,101632
2018-04-19T16:26:07.305Z,101631
2018-04-19T16:28:35.800Z,101624
2018-04-19T16:31:04.289Z,101620
2018-04-19T16:33:32.629Z,101623
2018-04-19T16:36:01.719Z,101626
2018-04-19T16:38:30.064Z,101620
2018-04-19T16:40:58.583Z,101622
2018-04-19T16:43:26.966Z,101616
2018-04-19T16:45:55.525Z,101622
2018-04-19T16:48:23.939Z,101615
2018-04-19T16:50:52.375Z,101620
2018-04-19T16:53:20.908Z,101617
2018-04-19T16:55:49.411Z,101617
2018-04-19T16:58:19.238Z,101622
2018-04-19T17:00:47.583Z,101615
2018-04-19T17:03:16.080Z,101610
2018-04-19T17:05:45.397Z,101605
2018-04-19T17:08:14.659Z,101602
2018-04-19T17:10:43.206Z,101598
2018-04-19T17:13:11.703Z,101600
2018-04-19T17:15:40.198Z,101600
2018-04-19T17:18:08.612Z,101598
2018-04-19T17:20:37.005Z,101599
2018-04-19T17:23:06.102Z,101599
2018-04-19T17:25:35.203Z,101594
2018-04-19T17:28:03.709Z,101597
2018-04-19T17:30:32.149Z,101598
2018-04-19T17:33:01.314Z,101591
2018-04-19T17:35:29.831Z,101600
2018-04-19T17:37:59.443Z,101600
2018-04-19T17:40:27.910Z,101596
2018-04-19T17:42:56.292Z,101598
2018-04-19T17:45:24.787Z,101599
2018-04-19T17:47:53.283Z,101600
2018-04-19T17:50:21.822Z,101594
2018-04-19T17:52:50.926Z,101596
2018-04-19T17:55:19.467Z,101593
2018-04-19T17:57:48.039Z,101601
2018-04-19T18:00:17.507Z,101599
2018-04-19T18:02:46.324Z,101601
2018-04-19T18:05:15.060Z,101598
2018-04-19T18:07:44.508Z,101598
2018-04-19T18:10:13.096Z,101589
2018-04-19T18:12:41.965Z,101604
2018-04-19T18:15:10.380Z,101605
2018-04-19T18:17:39.009Z,101607
2018-04-19T18:20:07.446Z,101610
2018-04-19T18:22:36.785Z,101613
2018-04-19T18:25:05.140Z,101610
2018-04-19T18:27:34.332Z,101614
2018-04-19T18:30:03.626Z,101612
2018-04-19T18:32:32.740Z,101620
2018-04-19T18:35:02.028Z,101620
2018-04-19T18:37:32.553Z,101622
2018-04-19T18:40:03.110Z,101625
2018-04-19T18:42:31.468Z,101628
2018-04-19T18:44:59.904Z,101626
2018-04-19T18:47:28.461Z,101627
2018-04-19T18:49:56.949Z,101634
2018-04-19T18:52:25.575Z,101634
2018-04-19T18:54:53.973Z,101634
2018-04-19T18:57:22.587Z,101636
2018-04-19T18:59:51.162Z,101639
2018-04-19T19:02:19.533Z,101638
2018-04-19T19:04:48.001Z,101644
2018-04-19T19:07:16.408Z,101646
2018-04-19T19:09:44.898Z,101651
2018-04-19T19:12:13.338Z,101650
2018-04-19T19:14:41.817Z,101646
2018-04-19T19:17:27.815Z,101650
2018-04-19T19:20:10.220Z,101655
2018-04-19T19:22:38.565Z,101658
2018-04-19T19:25:07.222Z,101657
2018-04-19T19:27:35.869Z,101661
2018-04-19T19:30:04.292Z,101665
2018-04-19T19:32:32.828Z,101665
2018-04-19T19:35:01.322Z,101663
2018-04-19T19:37:30.663Z,101670
2018-04-19T19:39:59.243Z,101674
2018-04-19T19:42:27.690Z,101675
2018-04-19T19:44:56.034Z,101674
2018-04-19T19:47:25.200Z,101681
2018-04-19T19:49:53.605Z,101681
2018-04-19T19:52:22.065Z,101686
2018-04-19T19:54:50.493Z,101686
2018-04-19T19:57:19.048Z,101684
2018-04-19T19:59:48.207Z,101685
2018-04-19T20:02:16.736Z,101683
2018-04-19T20:04:45.881Z,101684
2018-04-19T20:07:14.551Z,101685
2018-04-19T20:09:42.881Z,101683
2018-04-19T20:12:11.319Z,101689
2018-04-19T20:14:39.654Z,101687
2018-04-19T20:17:08.799Z,101687
2018-04-19T20:19:37.233Z,101691
2018-04-19T20:22:06.351Z,101688
2018-04-19T20:24:34.672Z,101691
2018-04-19T20:27:02.997Z,101691
2018-04-19T20:29:31.696Z,101689
2018-04-19T20:32:00.451Z,101693
2018-04-19T20:34:29.747Z,101689
2018-04-19T20:36:58.947Z,101693
2018-04-19T20:39:28.148Z,101688
2018-04-19T20:41:57.292Z,101681
2018-04-19T20:44:25.708Z,101687
2018-04-19T20:46:55.227Z,101689
2018-04-19T20:49:23.612Z,101689
2018-04-19T20:51:51.981Z,101682
2018-04-19T20:54:20.311Z,101684
2018-04-19T20:56:48.710Z,101687
2018-04-19T20:59:17.073Z,101686
2018-04-19T21:01:45.407Z,101688
2018-04-19T21:04:13.811Z,101685
2018-04-19T21:06:42.152Z,101688
2018-04-19T21:09:11.380Z,101688
2018-04-19T21:11:39.915Z,101688
2018-04-19T21:14:08.987Z,101687
2018-04-19T21:16:37.338Z,101688
2018-04-19T21:19:05.669Z,101685
2018-04-19T21:21:34.916Z,101686
2018-04-19T21:24:03.294Z,101687
2018-04-19T21:26:32.009Z,101686
2018-04-19T21:29:00.404Z,101687
2018-04-19T21:31:28.742Z,101687
2018-04-19T21:33:57.194Z,101683
2018-04-19T21:36:25.622Z,101681
2018-04-19T21:38:54.126Z,101678
2018-04-19T21:41:22.599Z,101682
2018-04-19T21:43:50.909Z,101685
2018-04-19T21:46:21.136Z,101687
2018-04-19T21:48:49.468Z,101688
2018-04-19T21:51:17.833Z,101691
2018-04-19T21:53:46.548Z,101690
2018-04-19T21:56:15.086Z,101692
2018-04-19T21:58:43.453Z,101689
2018-04-19T22:01:11.914Z,101691
2018-04-19T22:03:40.316Z,101692
2018-04-19T22:06:08.686Z,101692
2018-04-19T22:08:37.189Z,101690
2018-04-19T22:11:05.639Z,101694
2018-04-19T22:13:33.967Z,101691
2018-04-19T22:16:03.386Z,101690
2018-04-19T22:18:31.757Z,101690
2018-04-19T22:21:00.331Z,101690
2018-04-19T22:23:28.632Z,101691
2018-04-19T22:25:56.974Z,101693
2018-04-19T22:28:26.463Z,101692
2018-04-19T22:30:54.819Z,101691
2018-04-19T22:33:23.114Z,101687
2018-04-19T22:35:51.423Z,101686
2018-04-19T22:38:19.908Z,101690
2018-04-19T22:40:48.253Z,101689
2018-04-19T22:43:16.602Z,101687
2018-04-19T22:45:45.639Z,101688
2018-04-19T22:48:13.966Z,101691
2018-04-19T22:50:42.412Z,101688
2018-04-19T22:53:11.722Z,101682
2018-04-19T22:55:41.958Z,101684
2018-04-19T22:58:12.017Z,101686
2018-04-19T23:00:42.052Z,101683
2018-04-19T23:03:10.506Z,101685
2018-04-19T23:05:38.827Z,101681
2018-04-19T23:08:07.289Z,101677
2018-04-19T23:10:35.834Z,101675
2018-04-19T23:13:04.152Z,101680
2018-04-19T23:15:32.597Z,101679
2018-04-19T23:18:00.948Z,101678
2018-04-19T23:20:29.325Z,101673
2018-04-19T23:22:57.827Z,101675
2018-04-19T23:25:26.238Z,101673
2018-04-19T23:27:54.561Z,101673
2018-04-19T23:30:22.862Z,101672
2018-04-19T23:32:51.201Z,101672
2018-04-19T23:35:19.533Z,101668
2018-04-19T23:37:47.884Z,101666
2018-04-19T23:40:16.979Z,101666
2018-04-19T23:42:46.109Z,101661
2018-04-19T23:45:15.799Z,101660
2018-04-19T23:47:44.333Z,101663
2018-04-19T23:50:12.735Z,101658
2018-04-19T23:52:41.072Z,101662
2018-04-19T23:55:09.448Z,101657
2018-04-19T23:57:37.728Z,101657
